Terminal Aerodrome Forecast
Issued by NWS Wilmington, OH

Home | Current Version | Previous Version | Graphics & Text | Print | Product List | Glossary Off
Versions: 1 2 3 4 5 6 7 8 9 10 11 12 13 14 15 16 17

000
FTUS41 KILN 202223 AAB
TAFCMH
TAF AMD
KCMH 202223Z 2022/2118 23011KT P6SM SCT060
     FM210200 24005KT P6SM SCT060 BKN120
     FM211400 26009KT P6SM SCT050=

USA.gov is the U.S. government's official web portal to all federal, state and local government web resources and services.